Time;durP1;ratioP1;P1;durP2;ratioP2;P2;SDS_P1;SDS_P2;PMS_P1;PMS_P2;Temp;Humidity;BMP_temperature;BMP_pressure;BME280_temperature;BME280_humidity;BME280_pressure;Samples;Min_cycle;Max_cycle;Signal;HPM_P1;HPM_P2
2021/01/03 00:00:20;;;;;;;23.63;16.48;;;3.00;99.90;;;;;;5073324;28;20499;-46
2021/01/03 00:02:48;;;;;;;31.73;17.20;;;3.00;99.90;;;;;;5073024;28;20207;-46
2021/01/03 00:05:17;;;;;;;26.63;17.33;;;2.90;99.90;;;;;;5071888;28;20196;-46
2021/01/03 00:07:44;;;;;;;28.10;16.67;;;2.90;99.90;;;;;;5073230;28;20198;-46
2021/01/03 00:10:11;;;;;;;24.42;17.30;;;3.00;99.90;;;;;;5072995;28;20725;-45
2021/01/03 00:12:38;;;;;;;24.98;16.52;;;3.00;99.90;;;;;;5073171;28;20607;-46
2021/01/03 00:15:07;;;;;;;25.08;17.05;;;3.10;99.90;;;;;;5073120;28;20218;-47
2021/01/03 00:17:34;;;;;;;24.80;16.80;;;3.10;99.90;;;;;;5072945;28;20541;-47
2021/01/03 00:20:01;;;;;;;24.85;16.05;;;2.80;99.90;;;;;;5072875;28;20730;-47
2021/01/03 00:22:27;;;;;;;29.60;18.60;;;3.10;99.90;;;;;;5072555;28;20246;-46
2021/01/03 00:24:54;;;;;;;26.77;17.45;;;3.30;99.90;;;;;;5072740;28;20199;-45
2021/01/03 00:27:21;;;;;;;28.75;17.90;;;3.20;99.90;;;;;;5072807;28;20210;-46
2021/01/03 00:29:47;;;;;;;24.50;15.15;;;2.90;99.90;;;;;;5072600;28;20211;-47
2021/01/03 00:32:14;;;;;;;27.40;15.90;;;3.40;99.90;;;;;;5072616;28;20265;-46
2021/01/03 00:34:40;;;;;;;25.85;17.15;;;3.10;99.90;;;;;;5071792;28;20210;-46
2021/01/03 00:37:07;;;;;;;24.10;16.85;;;3.20;99.90;;;;;;5072577;28;20678;-45
2021/01/03 00:39:34;;;;;;;27.73;17.00;;;2.90;99.90;;;;;;5072767;28;20548;-47
2021/01/03 00:42:01;;;;;;;23.33;14.45;;;3.20;99.90;;;;;;5072470;28;20216;-46
2021/01/03 00:44:27;;;;;;;28.67;17.88;;;3.00;99.90;;;;;;5072309;28;20361;-46
2021/01/03 00:46:54;;;;;;;29.02;19.33;;;2.90;99.90;;;;;;5072474;28;20187;-46
2021/01/03 00:49:20;;;;;;;29.10;16.67;;;3.00;99.90;;;;;;5072346;28;20668;-46
2021/01/03 00:51:47;;;;;;;29.80;17.52;;;3.00;99.90;;;;;;5072464;28;20191;-45
2021/01/03 00:54:14;;;;;;;27.23;18.05;;;2.80;99.90;;;;;;5072277;28;20222;-46
2021/01/03 00:56:41;;;;;;;30.20;17.45;;;2.80;99.90;;;;;;5072434;28;20198;-46
2021/01/03 00:59:07;;;;;;;25.50;16.60;;;2.60;99.90;;;;;;5072176;28;20278;-46
2021/01/03 01:01:34;;;;;;;30.25;18.30;;;2.40;99.90;;;;;;5071832;28;20215;-46
2021/01/03 01:04:00;;;;;;;27.85;18.42;;;2.50;99.90;;;;;;5070578;28;20271;-46
2021/01/03 01:06:27;;;;;;;33.15;18.38;;;2.50;99.90;;;;;;5072017;28;20196;-44
2021/01/03 01:08:53;;;;;;;27.70;17.77;;;2.40;99.90;;;;;;5071932;28;20659;-46
2021/01/03 01:11:23;;;;;;;26.23;17.17;;;2.50;99.90;;;;;;5071803;28;20741;-47
2021/01/03 01:13:49;;;;;;;30.83;18.17;;;2.50;99.90;;;;;;5071762;28;20187;-45
2021/01/03 01:16:16;;;;;;;32.30;19.30;;;2.90;99.90;;;;;;5071964;28;20583;-46
2021/01/03 01:18:42;;;;;;;32.75;19.30;;;2.60;99.90;;;;;;5071893;28;20570;-46
2021/01/03 01:21:09;;;;;;;27.35;17.45;;;2.10;99.90;;;;;;5071760;28;20226;-46
2021/01/03 01:23:35;;;;;;;28.63;18.40;;;2.50;99.90;;;;;;5071683;28;20196;-46
2021/01/03 01:26:02;;;;;;;26.70;16.95;;;2.50;99.90;;;;;;5070515;28;20199;-46
2021/01/03 01:28:30;;;;;;;28.98;18.38;;;2.60;99.90;;;;;;5071842;28;20595;-45
2021/01/03 01:30:57;;;;;;;26.35;17.38;;;2.30;99.90;;;;;;5072079;28;20726;-45
2021/01/03 01:33:23;;;;;;;25.65;16.80;;;2.70;99.90;;;;;;5071398;28;20202;-45
2021/01/03 01:35:50;;;;;;;28.20;15.77;;;2.50;99.90;;;;;;5071729;28;20196;-46
2021/01/03 01:38:17;;;;;;;25.55;15.93;;;2.60;99.90;;;;;;5071671;28;20563;-46
2021/01/03 01:40:44;;;;;;;25.88;16.42;;;2.30;99.90;;;;;;5071636;28;20260;-47
2021/01/03 01:43:13;;;;;;;25.73;16.48;;;2.30;99.90;;;;;;5071261;28;20211;-46
2021/01/03 01:45:43;;;;;;;30.30;17.52;;;2.70;99.90;;;;;;5071249;28;20244;-46
2021/01/03 01:48:12;;;;;;;27.63;16.80;;;2.50;99.90;;;;;;5071932;28;20191;-47
2021/01/03 01:50:42;;;;;;;27.60;16.15;;;2.70;99.90;;;;;;5071411;28;20215;-44
2021/01/03 01:53:15;;;;;;;24.98;15.85;;;2.80;99.90;;;;;;5071316;28;20676;-47
2021/01/03 01:55:52;;;;;;;26.67;17.65;;;2.50;99.90;;;;;;5071417;28;20195;-47
2021/01/03 01:58:26;;;;;;;26.35;17.23;;;2.40;99.90;;;;;;5071450;28;20244;-47
2021/01/03 02:00:57;;;;;;;28.50;17.27;;;2.50;99.90;;;;;;5071502;28;20592;-45
2021/01/03 02:03:30;;;;;;;27.23;16.20;;;2.50;99.90;;;;;;5071454;28;20226;-46
2021/01/03 02:06:01;;;;;;;26.23;16.88;;;2.70;99.90;;;;;;5071452;28;20195;-46
2021/01/03 02:08:33;;;;;;;31.40;17.92;;;2.30;99.90;;;;;;5070029;28;20227;-46
2021/01/03 02:11:02;;;;;;;28.40;17.00;;;2.30;99.90;;;;;;5071615;28;20219;-46
2021/01/03 02:13:31;;;;;;;27.23;17.35;;;2.20;99.90;;;;;;5071065;28;20604;-47
2021/01/03 02:16:04;;;;;;;29.02;15.30;;;2.40;99.90;;;;;;5070016;28;20203;-46
2021/01/03 02:18:30;;;;;;;31.70;19.13;;;2.20;99.90;;;;;;5071304;28;20183;-46
2021/01/03 02:21:08;;;;;;;32.35;17.58;;;1.90;99.90;;;;;;5071362;28;20692;-46
2021/01/03 02:23:44;;;;;;;30.75;17.63;;;2.20;99.90;;;;;;5070962;28;20711;-46
2021/01/03 02:26:13;;;;;;;29.55;17.83;;;2.20;99.90;;;;;;5071361;28;20215;-46
2021/01/03 02:28:43;;;;;;;29.77;15.85;;;2.20;99.90;;;;;;5071156;28;20725;-45
2021/01/03 02:31:13;;;;;;;28.05;15.75;;;1.90;99.90;;;;;;5069996;28;20652;-46
2021/01/03 02:33:42;;;;;;;24.48;15.40;;;2.30;99.90;;;;;;5071053;28;20183;-45
2021/01/03 02:36:15;;;;;;;26.15;15.25;;;2.30;99.90;;;;;;5071317;28;20199;-46
2021/01/03 02:38:50;;;;;;;28.33;15.20;;;2.30;99.90;;;;;;5069782;28;20203;-46
2021/01/03 02:41:18;;;;;;;25.08;14.70;;;2.50;99.90;;;;;;5071396;28;20214;-46
2021/01/03 02:43:45;;;;;;;24.90;14.20;;;2.40;99.90;;;;;;5070884;28;20183;-45
2021/01/03 02:46:11;;;;;;;24.90;14.95;;;2.00;99.90;;;;;;5071247;28;20187;-46
2021/01/03 02:48:38;;;;;;;24.92;13.32;;;2.50;99.90;;;;;;5071107;28;20733;-46
2021/01/03 02:51:05;;;;;;;23.38;14.85;;;2.50;99.90;;;;;;5070925;28;20742;-47
2021/01/03 02:53:31;;;;;;;24.42;15.02;;;2.40;99.90;;;;;;5070620;28;20194;-47
2021/01/03 02:55:58;;;;;;;26.02;15.13;;;2.30;99.90;;;;;;5071305;28;20191;-47
2021/01/03 02:58:25;;;;;;;24.40;13.70;;;2.10;99.90;;;;;;5072041;28;20191;-47
2021/01/03 03:00:52;;;;;;;21.90;14.45;;;2.40;99.90;;;;;;5074462;28;20215;-47
2021/01/03 03:03:18;;;;;;;22.90;13.55;;;2.40;99.90;;;;;;5072755;28;20630;-43
2021/01/03 03:05:45;;;;;;;22.85;14.02;;;2.20;99.90;;;;;;5074739;28;20268;-40
2021/01/03 03:08:11;;;;;;;22.38;13.23;;;2.50;99.90;;;;;;5074429;28;20191;-46
2021/01/03 03:10:38;;;;;;;24.88;13.07;;;2.60;99.90;;;;;;5073218;28;20276;-47
2021/01/03 03:13:05;;;;;;;21.35;13.00;;;2.20;99.90;;;;;;5073897;28;20199;-46
2021/01/03 03:15:33;;;;;;;21.70;13.60;;;2.50;99.90;;;;;;5074495;28;20221;-46
2021/01/03 03:18:00;;;;;;;19.85;11.80;;;2.50;99.90;;;;;;5074348;28;20191;-48
2021/01/03 03:20:27;;;;;;;21.98;13.15;;;2.70;99.90;;;;;;5096818;22;20226;-47
2021/01/03 03:22:54;;;;;;;17.00;11.80;;;2.30;99.90;;;;;;5073778;28;20243;-46
2021/01/03 03:25:22;;;;;;;18.45;12.60;;;2.40;99.90;;;;;;5074245;28;20241;-49
2021/01/03 03:27:49;;;;;;;18.10;12.20;;;2.70;99.90;;;;;;5073976;28;20191;-47
2021/01/03 03:30:19;;;;;;;20.45;11.70;;;2.70;99.90;;;;;;5074026;28;20726;-47
2021/01/03 03:32:52;;;;;;;18.73;11.43;;;2.70;99.90;;;;;;5074297;28;20233;-47
2021/01/03 03:35:20;;;;;;;20.30;13.15;;;2.60;99.90;;;;;;5075054;28;20568;-46
2021/01/03 03:37:47;;;;;;;16.10;11.18;;;2.70;99.90;;;;;;5074270;28;20236;-46
2021/01/03 03:40:14;;;;;;;16.50;11.60;;;2.50;99.90;;;;;;5073346;28;20290;-45
2021/01/03 03:42:41;;;;;;;17.85;11.05;;;2.80;99.90;;;;;;5073652;28;20632;-47
2021/01/03 03:45:09;;;;;;;15.55;10.70;;;2.90;99.90;;;;;;5074546;28;20282;-43
2021/01/03 03:47:36;;;;;;;17.25;10.55;;;2.90;99.90;;;;;;5075014;28;20604;-46
2021/01/03 03:50:04;;;;;;;15.57;10.38;;;2.90;99.90;;;;;;5075116;28;20220;-46
2021/01/03 03:52:31;;;;;;;18.83;10.30;;;3.00;99.90;;;;;;5074468;28;20234;-46
2021/01/03 03:54:57;;;;;;;16.67;11.50;;;2.70;99.90;;;;;;5074301;28;20203;-46
2021/01/03 03:57:24;;;;;;;17.13;10.80;;;2.90;99.90;;;;;;5073822;28;20195;-47
2021/01/03 03:59:51;;;;;;;19.23;9.50;;;2.70;99.90;;;;;;5074425;28;20636;-46
2021/01/03 04:02:17;;;;;;;14.43;9.57;;;2.90;99.90;;;;;;5073762;28;20207;-46
2021/01/03 04:04:45;;;;;;;14.18;9.00;;;2.90;99.90;;;;;;5074039;28;20192;-46
2021/01/03 04:07:12;;;;;;;15.52;9.90;;;3.10;99.90;;;;;;5074034;28;20233;-46
2021/01/03 04:09:39;;;;;;;13.57;9.35;;;3.10;99.90;;;;;;5073789;28;20230;-46
2021/01/03 04:12:06;;;;;;;17.15;10.23;;;2.70;99.90;;;;;;5073950;28;20236;-46
2021/01/03 04:14:32;;;;;;;15.60;9.13;;;3.20;99.90;;;;;;5073330;28;20707;-46
2021/01/03 04:17:01;;;;;;;14.75;9.20;;;3.00;99.90;;;;;;5073583;28;20215;-46
2021/01/03 04:19:29;;;;;;;17.67;10.85;;;2.70;99.90;;;;;;5073310;28;20199;-46
2021/01/03 04:21:58;;;;;;;15.93;10.25;;;3.00;99.90;;;;;;5073381;28;20598;-46
2021/01/03 04:24:26;;;;;;;15.38;9.07;;;3.20;99.90;;;;;;5073370;28;20198;-45
2021/01/03 04:26:54;;;;;;;13.18;8.57;;;3.00;99.90;;;;;;5073177;28;20298;-46
2021/01/03 04:29:21;;;;;;;10.75;7.93;;;2.80;99.90;;;;;;5073298;28;20564;-45
2021/01/03 04:31:53;;;;;;;13.90;9.60;;;3.10;99.90;;;;;;5073115;28;20207;-46
2021/01/03 04:34:20;;;;;;;13.93;8.25;;;3.10;99.90;;;;;;5072987;28;20186;-46
2021/01/03 04:36:49;;;;;;;13.23;8.98;;;3.10;99.90;;;;;;5073404;28;20191;-47
2021/01/03 04:39:16;;;;;;;15.52;10.23;;;3.20;99.90;;;;;;5071899;28;20690;-47
2021/01/03 04:41:44;;;;;;;16.10;10.15;;;3.10;99.90;;;;;;5073109;28;20219;-46
2021/01/03 04:44:17;;;;;;;13.55;8.95;;;3.30;99.90;;;;;;5072344;28;20664;-45
2021/01/03 04:46:44;;;;;;;14.05;9.05;;;3.30;99.90;;;;;;5072711;28;20192;-46
2021/01/03 04:49:21;;;;;;;14.55;9.75;;;3.30;99.90;;;;;;5072816;28;20549;-44
2021/01/03 04:52:21;;;;;;;12.20;8.63;;;3.10;99.90;;;;;;5072967;28;20222;-46
2021/01/03 04:54:53;;;;;;;16.52;9.23;;;3.20;99.90;;;;;;5072730;28;20196;-46
2021/01/03 04:57:36;;;;;;;14.25;9.80;;;3.20;99.90;;;;;;5073519;28;20257;-45
2021/01/03 05:00:05;;;;;;;12.65;8.65;;;3.30;99.90;;;;;;5072791;28;20226;-45
2021/01/03 05:03:08;;;;;;;20.00;10.50;;;3.00;99.90;;;;;;5072538;28;20256;-44
2021/01/03 05:05:36;;;;;;;13.98;9.32;;;3.30;99.90;;;;;;5072968;28;20198;-46
2021/01/03 05:08:14;;;;;;;15.52;9.40;;;3.00;99.90;;;;;;5073035;28;20202;-46
2021/01/03 05:10:40;;;;;;;16.27;10.05;;;3.20;99.90;;;;;;5072826;28;20559;-45
2021/01/03 05:13:32;;;;;;;16.23;10.50;;;3.30;99.90;;;;;;5072667;28;20655;-45
2021/01/03 05:15:58;;;;;;;13.43;9.13;;;3.10;99.90;;;;;;5072547;28;20255;-45
2021/01/03 05:18:25;;;;;;;16.83;10.13;;;2.80;99.90;;;;;;5072319;28;20198;-47
2021/01/03 05:20:55;;;;;;;17.98;11.20;;;3.00;99.90;;;;;;5071532;28;20751;-45
2021/01/03 05:23:24;;;;;;;16.00;9.70;;;2.70;99.90;;;;;;5071859;28;20268;-42
2021/01/03 05:25:52;;;;;;;17.35;10.55;;;3.00;99.90;;;;;;5072067;28;20287;-45
2021/01/03 05:28:22;;;;;;;16.05;10.57;;;2.70;99.90;;;;;;5072285;28;20199;-47
2021/01/03 05:30:48;;;;;;;15.40;10.65;;;3.00;99.90;;;;;;5071965;28;20711;-45
2021/01/03 05:33:23;;;;;;;18.13;10.82;;;3.00;99.90;;;;;;5070353;28;20198;-44
2021/01/03 05:35:50;;;;;;;18.73;11.50;;;2.70;99.90;;;;;;5072047;28;20206;-43
2021/01/03 05:38:36;;;;;;;17.52;11.50;;;2.70;99.90;;;;;;5072004;28;20202;-43
2021/01/03 05:41:13;;;;;;;17.45;11.27;;;3.20;99.90;;;;;;5071908;28;20575;-43
2021/01/03 05:43:40;;;;;;;16.17;10.50;;;2.90;99.90;;;;;;5071517;28;20637;-44
2021/01/03 05:46:18;;;;;;;18.63;10.57;;;3.20;99.90;;;;;;5071937;28;20199;-43
2021/01/03 05:48:59;;;;;;;17.02;11.48;;;3.20;99.90;;;;;;5071834;28;20198;-42
2021/01/03 05:51:37;;;;;;;20.25;11.88;;;3.10;99.90;;;;;;5070550;28;20334;-46
2021/01/03 05:54:07;;;;;;;20.45;10.57;;;3.00;99.90;;;;;;5071710;28;20195;-46
2021/01/03 05:56:36;;;;;;;19.60;11.85;;;2.70;99.90;;;;;;5072000;28;20199;-47
2021/01/03 05:59:04;;;;;;;19.13;11.25;;;3.10;99.90;;;;;;5071939;28;20191;-44
2021/01/03 06:01:32;;;;;;;17.42;10.85;;;2.90;99.90;;;;;;5071666;28;20215;-44
2021/01/03 06:04:05;;;;;;;17.10;10.88;;;2.70;99.90;;;;;;5071710;28;20692;-44
2021/01/03 06:06:44;;;;;;;14.88;9.50;;;3.00;99.90;;;;;;5071306;28;20214;-44
2021/01/03 06:09:11;;;;;;;16.77;11.27;;;3.20;99.90;;;;;;5072962;28;20213;-46
2021/01/03 06:11:39;;;;;;;17.67;12.13;;;3.00;99.90;;;;;;5072539;28;20219;-46
2021/01/03 06:14:24;;;;;;;15.70;11.90;;;2.80;99.90;;;;;;5072351;28;20190;-46
2021/01/03 06:16:51;;;;;;;16.45;9.80;;;3.10;99.90;;;;;;5072768;28;20199;-46
2021/01/03 06:19:29;;;;;;;15.98;10.27;;;3.10;99.90;;;;;;5072964;28;20207;-46
2021/01/03 06:21:56;;;;;;;16.02;9.80;;;2.70;99.90;;;;;;5072611;28;20219;-46
2021/01/03 06:24:25;;;;;;;15.40;10.65;;;3.00;99.90;;;;;;5072205;28;20652;-47
2021/01/03 06:26:54;;;;;;;15.40;10.45;;;2.70;99.90;;;;;;5072314;28;20664;-45
2021/01/03 06:29:28;;;;;;;17.48;9.88;;;3.00;99.90;;;;;;5072606;28;20678;-47
2021/01/03 06:32:16;;;;;;;16.33;9.70;;;2.70;99.90;;;;;;5072487;28;20292;-47
2021/01/03 06:34:49;;;;;;;13.70;8.52;;;2.60;99.90;;;;;;5074573;28;20213;-45
2021/01/03 06:37:27;;;;;;;18.88;9.63;;;2.90;99.90;;;;;;5076180;28;20607;-47
2021/01/03 06:39:59;;;;;;;16.05;9.13;;;2.80;99.90;;;;;;5076984;28;20597;-46
2021/01/03 06:43:26;;;;;;;17.55;10.63;;;2.90;99.90;;;;;;5075601;28;20211;-46
2021/01/03 06:46:32;;;;;;;14.75;8.98;;;2.90;99.90;;;;;;5076023;28;20191;-48
2021/01/03 06:49:47;;;;;;;14.02;8.70;;;2.70;99.90;;;;;;5075400;28;20258;-44
2021/01/03 06:52:48;;;;;;;16.83;9.07;;;3.00;99.90;;;;;;5052700;28;20203;-47
2021/01/03 06:55:28;;;;;;;17.45;9.20;;;2.80;99.90;;;;;;5042937;28;20212;-46
2021/01/03 06:58:28;;;;;;;18.38;10.63;;;3.10;99.90;;;;;;5070211;28;20249;-44
2021/01/03 07:00:58;;;;;;;13.73;8.98;;;3.00;99.90;;;;;;5075037;28;20211;-45
2021/01/03 07:03:29;;;;;;;17.08;9.13;;;3.00;99.90;;;;;;5073606;28;20222;-46
2021/01/03 07:06:00;;;;;;;14.00;9.95;;;2.90;99.90;;;;;;5075616;28;20195;-46
2021/01/03 07:08:29;;;;;;;16.42;9.55;;;2.70;99.90;;;;;;5075219;28;20256;-46
2021/01/03 07:10:56;;;;;;;13.02;7.60;;;2.80;99.90;;;;;;5074996;28;20211;-47
2021/01/03 07:13:43;;;;;;;19.83;10.90;;;3.00;99.90;;;;;;5074581;28;20241;-46
2021/01/03 07:16:31;;;;;;;13.43;8.95;;;2.70;99.90;;;;;;5071267;28;20253;-45
2021/01/03 07:19:05;;;;;;;12.15;7.50;;;2.90;99.90;;;;;;5074602;28;20226;-45
2021/01/03 07:21:40;;;;;;;17.10;10.10;;;2.70;99.90;;;;;;5074395;28;20352;-47
2021/01/03 07:24:30;;;;;;;16.55;10.68;;;2.90;99.90;;;;;;5074093;28;20284;-45
2021/01/03 07:27:34;;;;;;;17.52;10.52;;;2.90;99.90;;;;;;5074095;28;20191;-47
2021/01/03 07:30:48;;;;;;;14.32;9.40;;;2.70;99.90;;;;;;5074176;28;20698;-45
2021/01/03 07:33:19;;;;;;;15.82;10.30;;;2.80;99.90;;;;;;5073798;28;20211;-44
2021/01/03 07:35:47;;;;;;;17.25;9.88;;;2.70;99.90;;;;;;5074297;28;20684;-45
2021/01/03 07:38:27;;;;;;;16.00;10.18;;;2.90;99.90;;;;;;5074566;28;20606;-47
2021/01/03 07:41:00;;;;;;;15.23;9.43;;;3.00;99.90;;;;;;5074321;28;20211;-42
2021/01/03 07:43:27;;;;;;;16.92;9.73;;;3.10;99.90;;;;;;5073741;28;20213;-43
2021/01/03 07:45:53;;;;;;;16.00;9.77;;;2.90;99.90;;;;;;5073907;28;20199;-43
2021/01/03 07:48:42;;;;;;;17.13;11.02;;;2.70;99.90;;;;;;5073872;28;20192;-46
2021/01/03 07:51:11;;;;;;;15.18;10.20;;;3.00;99.90;;;;;;5070730;28;20306;-43
2021/01/03 07:53:39;;;;;;;16.20;9.77;;;3.20;99.90;;;;;;5073419;28;20215;-45
2021/01/03 07:56:18;;;;;;;15.98;10.68;;;3.00;99.90;;;;;;5073605;28;20664;-46
2021/01/03 07:58:45;;;;;;;14.98;10.18;;;3.20;99.90;;;;;;5073912;28;20601;-43
2021/01/03 08:01:15;;;;;;;16.50;11.07;;;2.90;99.90;;;;;;5073736;28;20211;-44
2021/01/03 08:03:42;;;;;;;14.05;10.98;;;3.20;99.90;;;;;;5073684;28;20211;-47
2021/01/03 08:06:12;;;;;;;14.18;10.07;;;3.20;99.90;;;;;;5073603;28;20218;-46
2021/01/03 08:08:39;;;;;;;13.38;9.77;;;3.10;99.90;;;;;;5073731;28;20611;-45
2021/01/03 08:11:21;;;;;;;16.52;10.15;;;3.00;99.90;;;;;;5073500;28;20223;-43
2021/01/03 08:13:51;;;;;;;16.77;10.95;;;3.00;99.90;;;;;;5073247;28;20196;-44
2021/01/03 08:16:21;;;;;;;17.60;10.48;;;2.90;99.90;;;;;;5073430;28;20227;-43
2021/01/03 08:18:56;;;;;;;16.35;10.32;;;3.00;99.90;;;;;;5073659;28;20196;-45
2021/01/03 08:21:23;;;;;;;19.70;11.80;;;3.30;99.90;;;;;;5073507;28;20574;-47
2021/01/03 08:23:50;;;;;;;16.05;10.75;;;3.20;99.90;;;;;;5072631;28;20215;-43
2021/01/03 08:26:21;;;;;;;16.40;11.13;;;3.10;99.90;;;;;;5073396;28;20695;-46
2021/01/03 08:28:57;;;;;;;18.92;12.43;;;3.30;99.90;;;;;;5075069;28;20238;-45
2021/01/03 08:31:25;;;;;;;16.50;11.00;;;3.10;99.90;;;;;;5074517;28;20214;-47
2021/01/03 08:33:53;;;;;;;22.45;11.77;;;3.00;99.90;;;;;;5073158;28;20199;-46
2021/01/03 08:36:25;;;;;;;17.20;10.50;;;3.10;99.90;;;;;;5073549;28;20200;-45
2021/01/03 08:38:53;;;;;;;18.05;10.88;;;2.80;99.90;;;;;;5074146;28;20261;-44
2021/01/03 08:41:26;;;;;;;16.13;11.02;;;2.70;99.90;;;;;;5073781;28;20592;-46
2021/01/03 08:43:53;;;;;;;17.00;11.82;;;2.90;99.90;;;;;;5071823;28;20660;-47
2021/01/03 08:46:25;;;;;;;16.52;11.15;;;2.70;99.90;;;;;;5073039;28;20687;-45
2021/01/03 08:48:59;;;;;;;14.98;10.73;;;3.00;99.90;;;;;;5073211;28;20200;-45
2021/01/03 08:51:27;;;;;;;15.80;11.20;;;3.00;99.90;;;;;;5073129;28;20649;-45
2021/01/03 08:53:58;;;;;;;19.50;11.15;;;2.70;99.90;;;;;;5072950;28;20187;-45
2021/01/03 08:56:28;;;;;;;16.95;11.55;;;2.80;99.90;;;;;;5072385;28;20195;-46
2021/01/03 08:58:56;;;;;;;15.52;11.10;;;2.70;99.90;;;;;;5073137;28;20199;-45
2021/01/03 09:01:26;;;;;;;18.40;10.88;;;3.00;99.90;;;;;;5073192;28;20211;-46
2021/01/03 09:03:58;;;;;;;16.73;11.85;;;2.80;99.90;;;;;;5072521;28;20215;-45
2021/01/03 09:06:25;;;;;;;17.98;10.45;;;3.00;99.90;;;;;;5073124;28;20566;-45
2021/01/03 09:08:53;;;;;;;19.08;11.27;;;2.70;99.90;;;;;;5072742;28;20204;-47
2021/01/03 09:11:25;;;;;;;15.48;10.50;;;3.10;99.90;;;;;;5072466;28;20241;-46
2021/01/03 09:13:54;;;;;;;18.25;11.50;;;2.80;99.90;;;;;;5072050;28;20210;-47
2021/01/03 09:16:26;;;;;;;14.30;9.88;;;2.70;99.90;;;;;;5072412;28;20261;-46
2021/01/03 09:19:03;;;;;;;16.50;10.70;;;3.20;99.90;;;;;;5072973;28;20187;-44
2021/01/03 09:21:30;;;;;;;13.35;9.10;;;2.90;99.90;;;;;;5072747;28;20219;-48
2021/01/03 09:24:04;;;;;;;13.88;10.20;;;2.70;99.90;;;;;;5071835;28;20214;-47
2021/01/03 09:26:40;;;;;;;17.60;9.30;;;2.90;99.90;;;;;;5072161;28;20281;-45
2021/01/03 09:29:12;;;;;;;18.15;11.07;;;2.90;99.90;;;;;;5072082;28;20187;-46
2021/01/03 09:31:55;;;;;;;16.08;11.45;;;2.90;99.90;;;;;;5072153;28;20692;-43
2021/01/03 09:34:31;;;;;;;14.68;9.40;;;2.80;99.90;;;;;;5071908;28;20206;-47
2021/01/03 09:37:05;;;;;;;16.65;10.23;;;2.60;99.90;;;;;;5072193;28;20194;-46
2021/01/03 09:39:48;;;;;;;15.85;10.73;;;2.70;99.90;;;;;;5072082;28;20226;-47
2021/01/03 09:42:39;;;;;;;13.52;9.63;;;2.90;99.90;;;;;;5072006;28;20552;-48
2021/01/03 09:45:22;;;;;;;16.20;10.68;;;2.80;99.90;;;;;;5072671;28;20198;-45
2021/01/03 09:47:49;;;;;;;14.27;9.20;;;2.80;99.90;;;;;;5072903;28;20203;-47
2021/01/03 09:50:23;;;;;;;14.50;9.98;;;2.80;99.90;;;;;;5071106;28;20298;-47
2021/01/03 09:52:56;;;;;;;12.10;7.50;;;3.00;99.90;;;;;;5071793;28;20192;-47
2021/01/03 09:55:28;;;;;;;15.27;9.75;;;2.90;99.90;;;;;;5071717;28;20195;-45
2021/01/03 09:58:03;;;;;;;15.82;9.43;;;2.80;99.90;;;;;;5071901;28;20195;-47
2021/01/03 10:00:54;;;;;;;12.20;8.88;;;2.70;99.90;;;;;;5072090;28;20722;-46
2021/01/03 10:03:24;;;;;;;14.82;9.43;;;2.90;99.90;;;;;;5071575;28;20218;-47
2021/01/03 10:05:53;;;;;;;15.43;9.90;;;2.70;99.90;;;;;;5072526;28;20195;-48
2021/01/03 10:08:24;;;;;;;14.70;9.23;;;3.00;99.90;;;;;;5075214;28;20202;-45
2021/01/03 10:10:54;;;;;;;12.50;8.60;;;2.90;99.90;;;;;;5076339;28;20269;-48
2021/01/03 10:13:23;;;;;;;14.18;9.73;;;2.90;99.90;;;;;;5076471;28;20202;-48
2021/01/03 10:15:49;;;;;;;11.82;8.88;;;2.70;99.90;;;;;;5076683;28;20312;-45
2021/01/03 10:18:29;;;;;;;16.77;11.48;;;3.20;99.90;;;;;;5076930;28;20203;-43
2021/01/03 10:20:56;;;;;;;16.48;9.75;;;3.20;99.90;;;;;;5076513;28;20253;-47
2021/01/03 10:23:35;;;;;;;14.93;9.55;;;3.10;99.90;;;;;;5074802;28;20298;-47
2021/01/03 10:26:05;;;;;;;15.10;9.30;;;3.30;99.90;;;;;;5077504;28;20725;-46
2021/01/03 10:28:32;;;;;;;12.90;8.23;;;3.00;99.90;;;;;;5075649;28;20254;-46
2021/01/03 10:30:59;;;;;;;14.82;8.23;;;3.20;99.90;;;;;;5077547;28;20215;-46
2021/01/03 10:33:25;;;;;;;11.35;8.80;;;2.80;99.90;;;;;;5075184;28;20200;-45
2021/01/03 10:35:52;;;;;;;12.65;8.82;;;3.00;99.90;;;;;;5076958;28;20253;-46
2021/01/03 10:38:18;;;;;;;13.35;9.27;;;2.90;99.90;;;;;;5076677;28;20602;-46
2021/01/03 10:40:45;;;;;;;12.05;8.57;;;2.90;99.90;;;;;;5076898;28;20458;-45
2021/01/03 10:43:12;;;;;;;12.60;9.10;;;3.10;99.90;;;;;;5076522;28;20219;-46
2021/01/03 10:45:39;;;;;;;11.57;9.00;;;3.20;99.90;;;;;;5076351;28;20187;-46
2021/01/03 10:48:06;;;;;;;12.23;8.70;;;3.30;99.90;;;;;;5076419;28;20261;-47
2021/01/03 10:50:33;;;;;;;13.02;9.13;;;3.20;99.90;;;;;;5076375;28;20207;-46
2021/01/03 10:52:59;;;;;;;13.73;8.20;;;3.20;99.90;;;;;;5076592;28;20686;-48
2021/01/03 10:55:26;;;;;;;10.73;8.40;;;3.30;99.90;;;;;;5076827;28;20194;-46
2021/01/03 10:57:54;;;;;;;13.27;8.85;;;3.00;99.90;;;;;;5077202;28;20196;-45
2021/01/03 11:00:22;;;;;;;11.80;7.40;;;3.20;99.90;;;;;;5076925;28;20211;-46
2021/01/03 11:02:48;;;;;;;12.70;8.73;;;3.00;99.90;;;;;;5075800;28;20222;-46
2021/01/03 11:05:17;;;;;;;11.18;8.85;;;3.10;99.90;;;;;;5076380;28;20191;-46
2021/01/03 11:07:43;;;;;;;7.93;6.80;;;2.90;99.90;;;;;;5076783;28;20203;-46
2021/01/03 11:10:12;;;;;;;9.75;7.30;;;3.00;99.90;;;;;;5075117;28;20231;-47
2021/01/03 11:12:39;;;;;;;10.10;7.50;;;2.90;99.90;;;;;;5076003;28;20184;-46
2021/01/03 11:15:08;;;;;;;12.93;7.93;;;3.30;99.90;;;;;;5075994;28;20202;-46
2021/01/03 11:17:35;;;;;;;12.63;7.80;;;3.00;99.90;;;;;;5076161;28;20199;-46
2021/01/03 11:20:03;;;;;;;12.73;9.13;;;3.30;99.90;;;;;;5075111;28;20211;-48
2021/01/03 11:22:29;;;;;;;10.75;7.47;;;3.20;99.90;;;;;;5076104;28;20317;-46
2021/01/03 11:24:56;;;;;;;14.63;7.70;;;3.10;99.90;;;;;;5077453;28;20195;-48
2021/01/03 11:27:23;;;;;;;12.35;8.32;;;3.30;99.90;;;;;;5077203;28;20226;-47
2021/01/03 11:29:50;;;;;;;9.40;6.80;;;3.20;99.90;;;;;;5074350;28;20207;-47
2021/01/03 11:32:19;;;;;;;11.18;6.25;;;3.10;99.90;;;;;;5076479;28;20191;-45
2021/01/03 11:34:46;;;;;;;9.02;6.45;;;3.00;99.90;;;;;;5077355;28;20628;-45
2021/01/03 11:37:17;;;;;;;9.70;7.32;;;3.10;99.90;;;;;;5076000;28;20203;-45
2021/01/03 11:39:44;;;;;;;10.85;7.90;;;3.10;99.90;;;;;;5076084;28;20207;-45
2021/01/03 11:42:13;;;;;;;9.40;7.25;;;3.00;99.90;;;;;;5076368;28;20203;-46
2021/01/03 11:44:41;;;;;;;13.02;7.78;;;2.90;99.90;;;;;;5076201;28;20195;-45
2021/01/03 11:47:11;;;;;;;9.60;6.40;;;3.20;99.90;;;;;;5076391;28;20281;-46
2021/01/03 11:49:38;;;;;;;11.30;7.25;;;3.10;99.90;;;;;;5077128;28;20191;-47
2021/01/03 11:52:06;;;;;;;8.05;6.68;;;3.10;99.90;;;;;;5076961;28;20195;-45
2021/01/03 11:54:34;;;;;;;9.05;7.07;;;3.40;99.90;;;;;;5077155;28;20198;-47
2021/01/03 11:57:01;;;;;;;12.15;7.38;;;3.10;99.90;;;;;;5078370;28;20191;-45
2021/01/03 11:59:28;;;;;;;7.60;5.85;;;3.30;99.90;;;;;;5077911;28;20196;-45
2021/01/03 12:01:57;;;;;;;8.57;6.18;;;3.30;99.90;;;;;;5077223;28;20233;-46
2021/01/03 12:04:23;;;;;;;10.75;7.60;;;3.30;99.90;;;;;;5076254;28;20211;-46
2021/01/03 12:06:55;;;;;;;9.85;7.07;;;3.20;99.90;;;;;;5076352;28;20667;-45
2021/01/03 12:09:22;;;;;;;10.50;7.18;;;3.00;99.90;;;;;;5076118;28;20199;-47
2021/01/03 12:11:52;;;;;;;8.63;6.28;;;3.00;99.90;;;;;;5076288;28;20223;-46
2021/01/03 12:14:19;;;;;;;12.88;8.18;;;3.20;99.90;;;;;;5075663;28;20184;-48
2021/01/03 12:16:46;;;;;;;7.95;6.43;;;3.10;99.90;;;;;;5075875;28;20199;-46
2021/01/03 12:19:13;;;;;;;12.02;6.90;;;3.00;99.90;;;;;;5076182;28;20196;-45
2021/01/03 12:21:39;;;;;;;19.27;12.30;;;3.30;99.90;;;;;;5076108;28;20321;-48
2021/01/03 12:24:06;;;;;;;10.43;7.10;;;3.30;99.90;;;;;;5077516;28;20225;-46
2021/01/03 12:26:40;;;;;;;8.30;6.32;;;3.00;99.90;;;;;;5077323;28;20272;-46
2021/01/03 12:29:07;;;;;;;7.72;5.93;;;3.30;99.90;;;;;;5076678;28;20218;-47
2021/01/03 12:31:35;;;;;;;10.07;6.63;;;3.40;99.90;;;;;;5076783;28;20245;-48
2021/01/03 12:34:02;;;;;;;7.00;6.30;;;3.20;99.90;;;;;;5076904;28;20214;-45
2021/01/03 12:36:28;;;;;;;8.10;6.30;;;3.40;99.90;;;;;;5076412;28;20555;-47
2021/01/03 12:38:55;;;;;;;9.38;6.22;;;3.30;99.90;;;;;;5076804;28;20195;-46
2021/01/03 12:41:22;;;;;;;9.63;6.63;;;3.40;99.90;;;;;;5076229;28;20215;-45
2021/01/03 12:43:50;;;;;;;10.35;7.05;;;3.40;99.90;;;;;;5076283;28;20218;-46
2021/01/03 12:46:25;;;;;;;9.13;7.47;;;3.10;99.90;;;;;;5077100;28;20206;-46
2021/01/03 12:48:52;;;;;;;8.90;6.55;;;3.50;99.90;;;;;;5078173;28;20194;-44
2021/01/03 12:51:18;;;;;;;10.70;6.22;;;3.00;99.90;;;;;;5075906;28;20245;-44
2021/01/03 12:53:45;;;;;;;10.15;6.07;;;3.30;99.90;;;;;;5075334;28;20663;-46
2021/01/03 12:56:12;;;;;;;11.38;7.65;;;3.30;99.90;;;;;;5075238;28;20659;-45
2021/01/03 12:58:39;;;;;;;7.47;6.63;;;3.00;99.90;;;;;;5075526;28;20274;-46